Time;durP1;ratioP1;P1;durP2;ratioP2;P2;SDS_P1;SDS_P2;PMS_P1;PMS_P2;Temp;Humidity;BMP_temperature;BMP_pressure;BME280_temperature;BME280_humidity;BME280_pressure;Samples;Min_cycle;Max_cycle;Signal;HPM_P1;HPM_P2
2021/10/20 00:00:23;;;;;;;11.35;6.50;;;16.20;99.90;;;;;;5045388;28;25103;-69
2021/10/20 00:02:49;;;;;;;9.27;6.57;;;16.10;99.90;;;;;;5041055;28;25063;-69
2021/10/20 00:05:17;;;;;;;8.80;7.20;;;16.20;99.90;;;;;;5042723;28;25080;-68
2021/10/20 00:07:44;;;;;;;10.98;6.85;;;16.10;99.90;;;;;;5042299;28;25069;-69
2021/10/20 00:10:10;;;;;;;11.02;6.05;;;16.20;99.90;;;;;;5039405;28;25073;-70
2021/10/20 00:12:36;;;;;;;9.70;6.47;;;16.30;99.90;;;;;;5043264;28;25152;-69
2021/10/20 00:15:05;;;;;;;10.15;6.05;;;16.30;99.90;;;;;;5045527;28;25050;-69
2021/10/20 00:17:31;;;;;;;10.45;6.57;;;16.30;99.90;;;;;;5046068;28;25072;-70
2021/10/20 00:20:00;;;;;;;10.27;6.97;;;16.30;99.90;;;;;;5047186;28;25092;-70
2021/10/20 00:22:29;;;;;;;9.50;7.00;;;16.40;99.90;;;;;;5048642;28;25052;-70
2021/10/20 00:24:54;;;;;;;9.20;7.05;;;16.40;99.90;;;;;;5042190;28;25074;-70
2021/10/20 00:27:20;;;;;;;9.55;6.80;;;16.40;99.90;;;;;;5020103;28;25055;-71
2021/10/20 00:29:46;;;;;;;10.23;6.95;;;16.40;99.90;;;;;;5043548;28;25103;-70
2021/10/20 00:32:12;;;;;;;12.23;7.90;;;16.30;99.90;;;;;;5038414;28;25057;-68
2021/10/20 00:34:37;;;;;;;11.05;7.05;;;16.30;99.90;;;;;;5040186;28;25066;-70
2021/10/20 00:37:03;;;;;;;9.55;7.18;;;16.30;99.90;;;;;;5045948;28;25148;-72
2021/10/20 00:39:29;;;;;;;12.27;8.07;;;16.40;99.90;;;;;;5050635;28;25075;-70
2021/10/20 00:41:54;;;;;;;9.77;7.63;;;16.40;99.90;;;;;;5047663;28;25097;-67
2021/10/20 00:44:20;;;;;;;10.27;7.13;;;16.40;99.90;;;;;;5036882;28;25118;-71
2021/10/20 00:46:46;;;;;;;11.73;7.47;;;16.50;99.90;;;;;;5047901;28;25050;-71
2021/10/20 00:49:12;;;;;;;10.07;8.35;;;16.30;99.90;;;;;;5044838;28;25060;-72
2021/10/20 00:51:38;;;;;;;11.15;7.20;;;16.30;99.90;;;;;;5040110;28;25052;-70
2021/10/20 00:54:03;;;;;;;11.18;7.07;;;16.40;99.90;;;;;;5027961;28;25063;-70
2021/10/20 00:56:29;;;;;;;11.80;7.93;;;16.40;99.90;;;;;;5037693;28;25056;-69
2021/10/20 00:58:56;;;;;;;12.85;7.18;;;16.40;99.90;;;;;;5046971;28;25069;-69
2021/10/20 01:01:22;;;;;;;11.23;8.10;;;16.40;99.90;;;;;;5045267;28;25100;-69
2021/10/20 01:03:48;;;;;;;12.40;8.38;;;16.40;99.90;;;;;;5029452;28;25105;-71
2021/10/20 01:06:16;;;;;;;12.85;8.65;;;16.40;99.90;;;;;;5038895;28;25075;-71
2021/10/20 01:08:41;;;;;;;12.18;8.43;;;16.40;99.90;;;;;;5050149;28;25057;-68
2021/10/20 01:11:07;;;;;;;15.20;8.60;;;16.40;99.90;;;;;;5055106;28;25063;-68
2021/10/20 01:13:33;;;;;;;14.23;8.48;;;16.40;99.90;;;;;;5028439;28;25082;-69
2021/10/20 01:16:00;;;;;;;9.77;7.88;;;16.40;99.90;;;;;;5045612;28;25047;-70
2021/10/20 01:18:26;;;;;;;16.08;8.90;;;16.40;99.90;;;;;;5039623;28;25056;-69
2021/10/20 01:20:53;;;;;;;13.40;8.60;;;16.40;99.90;;;;;;5020897;28;25058;-69
2021/10/20 01:23:19;;;;;;;14.18;9.73;;;16.30;99.90;;;;;;5018651;28;25104;-67
2021/10/20 01:25:45;;;;;;;14.45;9.38;;;16.30;99.90;;;;;;5032388;28;25068;-68
2021/10/20 01:28:11;;;;;;;10.32;7.97;;;16.30;99.90;;;;;;5042723;28;25058;-70
2021/10/20 01:30:37;;;;;;;12.23;8.65;;;16.30;99.90;;;;;;5041528;28;25084;-71
2021/10/20 01:33:03;;;;;;;11.02;8.98;;;16.30;99.90;;;;;;5045302;28;25037;-71
2021/10/20 01:35:28;;;;;;;14.35;8.52;;;16.40;99.90;;;;;;5047256;28;25102;-72
2021/10/20 01:37:58;;;;;;;13.43;9.30;;;16.40;99.90;;;;;;5043341;28;25060;-71
2021/10/20 01:40:24;;;;;;;10.32;9.30;;;16.40;99.90;;;;;;5041339;28;25061;-69
2021/10/20 01:42:50;;;;;;;12.85;9.27;;;16.40;99.90;;;;;;5037876;28;25070;-69
2021/10/20 01:45:16;;;;;;;12.75;9.48;;;16.40;99.90;;;;;;5045160;28;25081;-70
2021/10/20 01:47:42;;;;;;;13.65;9.20;;;16.40;99.90;;;;;;5036793;28;25101;-69
2021/10/20 01:50:10;;;;;;;10.90;8.10;;;16.40;99.90;;;;;;5026870;28;25072;-71
2021/10/20 01:52:37;;;;;;;12.70;8.55;;;16.40;99.90;;;;;;5046714;28;25049;-69
2021/10/20 01:55:05;;;;;;;10.43;8.82;;;16.40;99.90;;;;;;5023806;28;25071;-70
2021/10/20 01:57:31;;;;;;;11.77;9.55;;;16.40;99.90;;;;;;5041845;28;25134;-71
2021/10/20 01:59:57;;;;;;;17.15;9.07;;;16.40;99.90;;;;;;5047849;28;25091;-68
2021/10/20 02:02:23;;;;;;;11.80;9.05;;;16.40;99.90;;;;;;5043792;28;25131;-71
2021/10/20 02:04:49;;;;;;;14.13;9.48;;;16.50;99.90;;;;;;5047319;28;25116;-70
2021/10/20 02:07:15;;;;;;;14.32;9.13;;;16.50;99.90;;;;;;5038188;28;25082;-71
2021/10/20 02:09:41;;;;;;;12.75;9.25;;;16.50;99.90;;;;;;5050425;28;25079;-70
2021/10/20 02:12:07;;;;;;;12.57;10.02;;;16.60;99.90;;;;;;5054646;28;25097;-70
2021/10/20 02:14:33;;;;;;;17.67;9.05;;;16.60;99.90;;;;;;5065291;28;25076;-71
2021/10/20 02:16:58;;;;;;;17.70;10.10;;;16.50;99.90;;;;;;5045673;28;25100;-71
2021/10/20 02:19:24;;;;;;;13.98;10.18;;;16.50;99.90;;;;;;5047160;28;25080;-72
2021/10/20 02:21:50;;;;;;;15.63;9.88;;;16.50;99.90;;;;;;5022631;28;25074;-72
2021/10/20 02:24:15;;;;;;;12.80;9.45;;;16.60;99.90;;;;;;5043919;28;25060;-70
2021/10/20 02:26:41;;;;;;;14.30;9.80;;;16.50;99.90;;;;;;5045835;28;25040;-70
2021/10/20 02:29:06;;;;;;;20.48;10.65;;;16.50;99.90;;;;;;5048134;28;25146;-67
2021/10/20 02:31:32;;;;;;;21.98;11.00;;;16.50;99.90;;;;;;5044509;28;25074;-66
2021/10/20 02:33:58;;;;;;;16.73;11.13;;;16.50;99.90;;;;;;5031852;28;25120;-70
2021/10/20 02:36:23;;;;;;;16.73;10.98;;;16.50;99.90;;;;;;5036892;28;25130;-71
2021/10/20 02:38:49;;;;;;;14.60;11.10;;;16.50;99.90;;;;;;5046324;28;25158;-69
2021/10/20 02:41:15;;;;;;;13.70;10.82;;;16.50;99.90;;;;;;5056274;28;25071;-66
2021/10/20 02:43:40;;;;;;;15.77;11.32;;;16.50;99.90;;;;;;5049563;28;25060;-69
2021/10/20 02:46:07;;;;;;;15.13;10.23;;;16.50;99.90;;;;;;5036131;28;25060;-70
2021/10/20 02:48:34;;;;;;;15.10;11.43;;;16.60;99.90;;;;;;5045421;28;25087;-71
2021/10/20 02:50:59;;;;;;;20.33;11.07;;;16.50;99.90;;;;;;5053416;28;25098;-70
2021/10/20 02:53:25;;;;;;;16.38;11.60;;;16.60;99.90;;;;;;5063896;28;25062;-71
2021/10/20 02:55:51;;;;;;;15.10;11.10;;;16.50;99.90;;;;;;5056032;28;25063;-71
2021/10/20 02:58:17;;;;;;;16.80;10.35;;;16.50;99.90;;;;;;5056878;28;25059;-70
2021/10/20 03:00:43;;;;;;;15.20;10.60;;;16.40;99.90;;;;;;5048499;28;25069;-70
2021/10/20 03:03:08;;;;;;;16.02;11.38;;;16.40;99.90;;;;;;5047560;28;25055;-70
2021/10/20 03:05:34;;;;;;;14.82;11.50;;;16.40;99.90;;;;;;5038880;28;25101;-71
2021/10/20 03:08:00;;;;;;;15.20;10.95;;;16.40;99.90;;;;;;5014534;28;25063;-71
2021/10/20 03:10:26;;;;;;;15.63;11.85;;;16.40;99.90;;;;;;5029474;28;25057;-71
2021/10/20 03:12:51;;;;;;;15.55;11.82;;;16.40;99.90;;;;;;5043334;28;25085;-70
2021/10/20 03:15:17;;;;;;;15.55;12.32;;;16.40;99.90;;;;;;5050471;28;25073;-69
2021/10/20 03:17:42;;;;;;;13.27;11.45;;;16.40;99.90;;;;;;5029556;28;25115;-70
2021/10/20 03:20:09;;;;;;;18.52;12.13;;;16.40;99.90;;;;;;5044745;28;25071;-66
2021/10/20 03:22:40;;;;;;;16.10;12.57;;;16.50;99.90;;;;;;5024059;28;25067;-69
2021/10/20 03:25:08;;;;;;;12.95;11.48;;;16.50;99.90;;;;;;5046434;28;25096;-69
2021/10/20 03:27:43;;;;;;;22.50;12.20;;;16.40;99.90;;;;;;5044063;28;25061;-70
2021/10/20 03:30:10;;;;;;;14.10;11.80;;;16.50;99.90;;;;;;5040993;28;25071;-70
2021/10/20 03:32:36;;;;;;;15.68;12.60;;;16.50;99.90;;;;;;5043515;28;25081;-69
2021/10/20 03:35:01;;;;;;;19.10;13.70;;;16.40;99.90;;;;;;5043031;28;25125;-68
2021/10/20 03:37:27;;;;;;;16.27;12.35;;;16.50;99.90;;;;;;5035652;28;25089;-70
2021/10/20 03:39:53;;;;;;;13.93;12.02;;;16.50;99.90;;;;;;5029545;28;25057;-70
2021/10/20 03:42:19;;;;;;;16.33;13.25;;;16.50;99.90;;;;;;5043148;28;25072;-71
2021/10/20 03:44:45;;;;;;;14.73;12.55;;;16.50;99.90;;;;;;5035454;28;25066;-69
2021/10/20 03:47:11;;;;;;;16.63;12.10;;;16.60;99.90;;;;;;5033666;28;25076;-68
2021/10/20 03:49:37;;;;;;;22.77;12.80;;;16.60;99.90;;;;;;5043054;28;25066;-73
2021/10/20 03:52:03;;;;;;;16.02;12.45;;;16.60;99.90;;;;;;5042557;28;25140;-70
2021/10/20 03:54:28;;;;;;;18.67;12.18;;;16.60;99.90;;;;;;5023321;28;25115;-69
2021/10/20 03:56:54;;;;;;;17.35;12.20;;;16.60;99.90;;;;;;5046073;28;25059;-68
2021/10/20 03:59:20;;;;;;;20.75;12.63;;;16.60;99.90;;;;;;5042495;28;25055;-71
2021/10/20 04:01:45;;;;;;;16.13;11.10;;;16.60;99.90;;;;;;5048583;28;25060;-71
2021/10/20 04:04:11;;;;;;;16.98;11.77;;;16.60;99.90;;;;;;5037850;28;25081;-67
2021/10/20 04:06:37;;;;;;;20.38;11.70;;;16.50;99.90;;;;;;5044095;28;25060;-71
2021/10/20 04:09:03;;;;;;;16.52;11.38;;;16.50;99.90;;;;;;5044805;28;25129;-70
2021/10/20 04:11:29;;;;;;;15.40;10.48;;;16.50;99.90;;;;;;5042053;28;25121;-70
2021/10/20 04:13:55;;;;;;;17.67;11.38;;;16.50;99.90;;;;;;5025331;28;25065;-69
2021/10/20 04:16:20;;;;;;;18.95;11.25;;;16.50;99.90;;;;;;5049270;28;25080;-71
2021/10/20 04:18:46;;;;;;;15.70;10.98;;;16.50;99.90;;;;;;5045326;28;25069;-69
2021/10/20 04:21:12;;;;;;;15.40;10.57;;;16.50;99.90;;;;;;5044745;28;25127;-69
2021/10/20 04:23:37;;;;;;;14.45;11.02;;;16.50;99.90;;;;;;5050099;28;25068;-68
2021/10/20 04:26:03;;;;;;;13.25;10.95;;;16.50;99.90;;;;;;5041825;28;25099;-71
2021/10/20 04:28:30;;;;;;;14.43;10.63;;;16.50;99.90;;;;;;5047401;28;25095;-69
2021/10/20 04:30:55;;;;;;;15.68;10.20;;;16.50;99.90;;;;;;5044464;28;25073;-70
2021/10/20 04:33:21;;;;;;;16.67;10.65;;;16.50;99.90;;;;;;5048511;28;25158;-70
2021/10/20 04:35:47;;;;;;;15.27;10.07;;;16.50;99.90;;;;;;5052044;28;25080;-72
2021/10/20 04:38:12;;;;;;;13.48;10.40;;;16.60;99.90;;;;;;5047158;28;25072;-71
2021/10/20 04:40:38;;;;;;;13.38;10.77;;;16.50;99.90;;;;;;5045953;28;25153;-70
2021/10/20 04:43:03;;;;;;;14.75;9.95;;;16.50;99.90;;;;;;5049609;28;25151;-72
2021/10/20 04:45:29;;;;;;;15.82;10.48;;;16.50;99.90;;;;;;5025075;28;25088;-70
2021/10/20 04:47:55;;;;;;;16.98;10.82;;;16.60;99.90;;;;;;5032391;28;25062;-69
2021/10/20 04:50:20;;;;;;;12.80;9.85;;;16.60;99.90;;;;;;5048128;28;25121;-69
2021/10/20 04:52:46;;;;;;;13.55;9.65;;;16.60;99.90;;;;;;5054764;28;25104;-69
2021/10/20 04:55:12;;;;;;;16.02;10.40;;;16.70;99.90;;;;;;5063588;28;25081;-69
2021/10/20 04:57:37;;;;;;;11.27;9.15;;;16.70;99.90;;;;;;5055728;28;25068;-72
2021/10/20 05:00:05;;;;;;;15.02;10.20;;;16.60;99.90;;;;;;5051578;28;25124;-72
2021/10/20 05:02:35;;;;;;;12.80;9.43;;;16.60;99.90;;;;;;5044176;28;25083;-68
2021/10/20 05:05:05;;;;;;;17.92;10.95;;;16.60;99.90;;;;;;5038359;28;25063;-70
2021/10/20 05:07:31;;;;;;;10.38;8.60;;;16.50;99.90;;;;;;5044149;28;25064;-71
2021/10/20 05:09:57;;;;;;;13.15;9.73;;;16.50;99.90;;;;;;5019749;28;25053;-70
2021/10/20 05:12:23;;;;;;;12.73;10.35;;;16.50;99.90;;;;;;5040889;28;25065;-71
2021/10/20 05:14:49;;;;;;;14.82;9.65;;;16.50;99.90;;;;;;5038590;28;25123;-71
2021/10/20 05:17:14;;;;;;;13.40;9.25;;;16.50;99.90;;;;;;5027443;28;25057;-71
2021/10/20 05:19:41;;;;;;;12.82;8.82;;;16.60;99.90;;;;;;5046282;28;25059;-70
2021/10/20 05:22:07;;;;;;;11.52;8.80;;;16.60;99.90;;;;;;5042413;28;25056;-69
2021/10/20 05:24:34;;;;;;;12.50;9.40;;;16.60;99.90;;;;;;5049327;28;25066;-71
2021/10/20 05:26:59;;;;;;;12.32;7.93;;;16.60;99.90;;;;;;5045057;28;25090;-71
2021/10/20 05:29:31;;;;;;;14.38;9.38;;;16.60;99.90;;;;;;5049165;28;25105;-68
2021/10/20 05:31:57;;;;;;;11.93;8.65;;;16.70;99.90;;;;;;5045258;28;25115;-70
2021/10/20 05:34:23;;;;;;;13.63;8.98;;;16.70;99.90;;;;;;5052084;28;25149;-69
2021/10/20 05:36:48;;;;;;;8.77;7.68;;;16.70;99.90;;;;;;5043762;28;25102;-70
2021/10/20 05:39:14;;;;;;;11.07;8.35;;;16.70;99.90;;;;;;5028070;28;25051;-69
2021/10/20 05:41:40;;;;;;;11.32;8.65;;;16.70;99.90;;;;;;5045715;28;25109;-69
2021/10/20 05:44:06;;;;;;;17.00;9.43;;;16.70;99.90;;;;;;5042121;28;25157;-70
2021/10/20 05:46:32;;;;;;;15.88;8.20;;;16.70;99.90;;;;;;5030181;28;25071;-71
2021/10/20 05:48:58;;;;;;;15.27;8.52;;;16.70;99.90;;;;;;5032228;28;25097;-71
2021/10/20 05:51:23;;;;;;;12.43;8.85;;;16.70;99.90;;;;;;5044057;28;25087;-69
2021/10/20 05:53:49;;;;;;;16.40;9.63;;;16.60;99.90;;;;;;5022734;28;25075;-72
2021/10/20 05:56:15;;;;;;;10.85;8.75;;;16.60;99.90;;;;;;5046415;28;25127;-68
2021/10/20 05:58:41;;;;;;;12.63;8.77;;;16.60;99.90;;;;;;5044260;28;25075;-68
2021/10/20 06:01:06;;;;;;;14.25;8.27;;;16.60;99.90;;;;;;5046129;28;25075;-69
2021/10/20 06:03:32;;;;;;;14.57;9.50;;;16.60;99.90;;;;;;5048864;28;25105;-68
2021/10/20 06:05:58;;;;;;;17.20;8.80;;;16.60;99.90;;;;;;5048585;28;25133;-75
2021/10/20 06:08:23;;;;;;;17.38;7.32;;;16.60;99.90;;;;;;5046265;28;25068;-71
2021/10/20 06:10:49;;;;;;;11.23;8.77;;;16.60;99.90;;;;;;5049008;28;25065;-69
2021/10/20 06:13:14;;;;;;;14.73;7.97;;;16.60;99.90;;;;;;5026192;28;25058;-71
2021/10/20 06:15:45;;;;;;;14.35;8.20;;;16.60;99.90;;;;;;5048508;28;25156;-70
2021/10/20 06:18:12;;;;;;;10.38;6.97;;;16.50;99.90;;;;;;5054365;28;25067;-71
2021/10/20 06:20:39;;;;;;;15.40;8.05;;;16.50;99.90;;;;;;5052126;28;25104;-72
2021/10/20 06:23:04;;;;;;;12.38;7.82;;;16.40;99.90;;;;;;5044129;28;25068;-71
2021/10/20 06:25:31;;;;;;;11.02;7.90;;;16.40;99.90;;;;;;5050859;28;25054;-69
2021/10/20 06:27:57;;;;;;;13.90;7.68;;;16.40;99.90;;;;;;5052164;28;25140;-71
2021/10/20 06:30:22;;;;;;;10.20;7.53;;;16.40;99.90;;;;;;5051177;28;25066;-71
2021/10/20 06:32:48;;;;;;;11.68;7.28;;;16.40;99.90;;;;;;5026611;28;25057;-71
2021/10/20 06:35:13;;;;;;;12.30;8.55;;;16.30;99.90;;;;;;5034190;28;25053;-72
2021/10/20 06:37:40;;;;;;;9.77;7.30;;;16.30;99.90;;;;;;5050764;28;25109;-67
2021/10/20 06:40:06;;;;;;;13.05;8.45;;;16.30;99.90;;;;;;5055544;28;25078;-68
2021/10/20 06:42:32;;;;;;;11.52;8.65;;;16.20;99.90;;;;;;5052559;28;25092;-70
2021/10/20 06:44:58;;;;;;;14.68;9.13;;;16.10;99.90;;;;;;5051507;28;25123;-69
2021/10/20 06:47:25;;;;;;;9.80;8.80;;;16.00;99.90;;;;;;5052042;28;25070;-69
2021/10/20 06:49:52;;;;;;;10.77;9.05;;;16.00;99.90;;;;;;5050645;28;25151;-69
2021/10/20 06:52:17;;;;;;;16.45;9.27;;;15.80;99.90;;;;;;5051313;28;25107;-69
2021/10/20 06:54:44;;;;;;;13.73;9.27;;;15.70;99.90;;;;;;5050060;28;25169;-68
2021/10/20 06:57:10;;;;;;;15.40;10.45;;;15.70;99.90;;;;;;5057460;28;25123;-68
2021/10/20 06:59:35;;;;;;;15.52;10.23;;;15.60;99.90;;;;;;5049184;28;25094;-69
2021/10/20 07:02:01;;;;;;;15.43;10.35;;;15.50;99.90;;;;;;5042992;28;25101;-68
2021/10/20 07:04:27;;;;;;;13.55;10.18;;;15.40;99.90;;;;;;5039943;28;25140;-69
2021/10/20 07:06:55;;;;;;;16.83;12.13;;;15.40;99.90;;;;;;5048126;28;25054;-70
2021/10/20 07:09:22;;;;;;;17.40;11.50;;;15.40;99.90;;;;;;5049467;28;25081;-69
2021/10/20 07:11:48;;;;;;;12.70;10.77;;;15.30;99.90;;;;;;5048838;28;25077;-67
2021/10/20 07:14:13;;;;;;;12.30;10.80;;;15.30;99.90;;;;;;5053995;28;25081;-69
2021/10/20 07:16:41;;;;;;;11.65;10.07;;;15.20;99.90;;;;;;5042902;28;25053;-68
2021/10/20 07:19:07;;;;;;;15.65;10.18;;;15.30;99.90;;;;;;5050445;28;25053;-69
2021/10/20 07:21:36;;;;;;;15.60;11.30;;;15.20;99.90;;;;;;5053023;28;25098;-69
2021/10/20 07:24:02;;;;;;;14.63;10.65;;;15.20;99.90;;;;;;5051494;28;25147;-69
2021/10/20 07:26:29;;;;;;;15.38;10.00;;;15.20;99.90;;;;;;5051247;28;25056;-70
2021/10/20 07:28:55;;;;;;;13.77;10.85;;;15.10;99.90;;;;;;5033403;28;25059;-71
2021/10/20 07:31:22;;;;;;;14.20;11.00;;;15.10;99.90;;;;;;5038223;28;25179;-68
2021/10/20 07:33:48;;;;;;;14.63;11.13;;;15.20;99.90;;;;;;5056233;28;25069;-72
2021/10/20 07:36:13;;;;;;;14.07;11.40;;;15.20;99.90;;;;;;5057658;28;25081;-66
2021/10/20 07:38:39;;;;;;;18.23;10.70;;;15.10;99.90;;;;;;5055501;28;25053;-69
2021/10/20 07:41:05;;;;;;;18.63;11.60;;;15.10;99.90;;;;;;5051133;28;25117;-69
2021/10/20 07:43:30;;;;;;;13.23;11.32;;;15.10;99.90;;;;;;5050887;28;25100;-69
2021/10/20 07:45:57;;;;;;;12.15;10.23;;;15.10;99.90;;;;;;5034300;28;25121;-70
2021/10/20 07:48:22;;;;;;;14.43;10.75;;;15.10;99.90;;;;;;5044673;28;25125;-71
2021/10/20 07:50:48;;;;;;;16.02;10.73;;;15.10;99.90;;;;;;5048832;28;25076;-67
2021/10/20 07:53:16;;;;;;;14.15;9.65;;;15.10;99.90;;;;;;5057434;28;25071;-65
2021/10/20 07:55:42;;;;;;;11.88;10.10;;;15.10;99.90;;;;;;5049265;28;25162;-69
2021/10/20 07:58:08;;;;;;;14.65;10.63;;;15.20;99.90;;;;;;5049070;28;25168;-70
2021/10/20 08:00:33;;;;;;;11.60;9.68;;;15.20;99.90;;;;;;5037168;28;25077;-72
2021/10/20 08:03:01;;;;;;;12.10;9.25;;;15.30;99.90;;;;;;5038950;28;25102;-70
2021/10/20 08:05:26;;;;;;;18.23;10.30;;;15.30;99.90;;;;;;5051320;28;25063;-68
2021/10/20 08:07:52;;;;;;;12.15;10.30;;;15.40;99.90;;;;;;5053496;28;25044;-70
2021/10/20 08:10:23;;;;;;;12.43;9.65;;;15.50;99.90;;;;;;5054143;28;25080;-71
2021/10/20 08:12:50;;;;;;;11.60;8.98;;;15.60;99.90;;;;;;5051764;28;25064;-70
2021/10/20 08:15:17;;;;;;;10.88;9.38;;;15.70;99.90;;;;;;5056221;28;25073;-69
2021/10/20 08:17:51;;;;;;;10.65;9.57;;;15.70;99.90;;;;;;5053667;28;25074;-65
2021/10/20 08:20:28;;;;;;;12.98;10.10;;;15.70;99.90;;;;;;5043880;28;25073;-68
2021/10/20 08:22:53;;;;;;;15.25;12.20;;;15.80;99.90;;;;;;5051218;28;25085;-70
2021/10/20 08:25:19;;;;;;;13.27;10.35;;;15.80;99.90;;;;;;5052707;28;25130;-66
2021/10/20 08:27:44;;;;;;;13.38;9.38;;;15.80;99.90;;;;;;5054933;28;25052;-66
2021/10/20 08:30:20;;;;;;;14.52;10.50;;;15.80;99.90;;;;;;5055651;28;25151;-68
2021/10/20 08:32:48;;;;;;;13.00;10.10;;;15.80;99.90;;;;;;5061273;28;25057;-68
2021/10/20 08:35:16;;;;;;;13.63;10.82;;;15.80;99.90;;;;;;5069342;28;25073;-65
2021/10/20 08:37:46;;;;;;;11.75;10.30;;;15.80;99.90;;;;;;5062085;28;25098;-70
2021/10/20 08:40:13;;;;;;;14.52;11.00;;;15.80;99.90;;;;;;5042107;28;25099;-69
2021/10/20 08:42:40;;;;;;;12.93;11.27;;;15.80;99.90;;;;;;5044805;28;25066;-69
2021/10/20 08:45:08;;;;;;;14.05;11.30;;;15.90;99.90;;;;;;5037177;28;25078;-66
2021/10/20 08:47:35;;;;;;;14.15;11.63;;;15.90;99.90;;;;;;5035491;28;25079;-67
2021/10/20 08:50:06;;;;;;;14.82;12.07;;;16.10;99.90;;;;;;5057053;28;25096;-71
2021/10/20 08:52:32;;;;;;;16.38;12.02;;;16.10;99.90;;;;;;5051838;28;25083;-68
2021/10/20 08:54:59;;;;;;;15.70;11.55;;;16.10;99.90;;;;;;5030623;28;25070;-71
2021/10/20 08:57:25;;;;;;;16.27;13.23;;;16.20;99.90;;;;;;5053334;28;25066;-70
2021/10/20 08:59:53;;;;;;;14.85;11.35;;;16.20;99.90;;;;;;5047185;28;25059;-69
2021/10/20 09:02:22;;;;;;;16.98;12.45;;;16.20;99.90;;;;;;5049240;28;25088;-69
2021/10/20 09:04:55;;;;;;;14.68;11.82;;;16.30;99.90;;;;;;5039109;28;25072;-74
2021/10/20 09:07:21;;;;;;;14.50;11.38;;;16.30;99.90;;;;;;5044688;28;25061;-71
2021/10/20 09:09:51;;;;;;;15.45;11.85;;;16.40;99.90;;;;;;5040582;28;25055;-69
2021/10/20 09:12:26;;;;;;;18.77;12.75;;;16.40;99.90;;;;;;5028459;28;25145;-72
2021/10/20 09:14:59;;;;;;;12.48;10.85;;;16.40;99.90;;;;;;5045207;28;25054;-75
2021/10/20 09:17:40;;;;;;;13.93;10.48;;;16.50;99.90;;;;;;5032892;28;25150;-70
2021/10/20 09:20:25;;;;;;;12.85;10.65;;;16.50;99.90;;;;;;5046869;28;25095;-69
2021/10/20 09:23:02;;;;;;;13.48;10.80;;;16.50;99.90;;;;;;5048403;28;25093;-70
2021/10/20 09:25:58;;;;;;;13.05;9.85;;;16.50;99.90;;;;;;5046547;28;25079;-68
2021/10/20 09:28:32;;;;;;;11.38;10.18;;;16.50;99.90;;;;;;5020953;28;25074;-72
2021/10/20 09:31:02;;;;;;;13.98;10.35;;;16.50;99.90;;;;;;5041304;28;25070;-70
2021/10/20 09:33:38;;;;;;;12.32;9.88;;;16.60;99.90;;;;;;5013948;28;25095;-68
2021/10/20 09:36:17;;;;;;;13.30;9.48;;;16.50;99.90;;;;;;5049331;28;25048;-67
2021/10/20 09:38:49;;;;;;;11.98;8.73;;;16.60;99.90;;;;;;5049055;28;25059;-71
2021/10/20 09:41:15;;;;;;;9.57;8.57;;;16.70;99.90;;;;;;5054514;28;25105;-68
2021/10/20 09:43:52;;;;;;;10.27;9.18;;;16.70;99.90;;;;;;5051932;28;25172;-70
2021/10/20 09:46:31;;;;;;;11.75;9.10;;;16.80;99.90;;;;;;5026599;28;25114;-70
2021/10/20 09:49:01;;;;;;;11.02;9.05;;;16.80;99.90;;;;;;5031505;28;25072;-72
2021/10/20 09:51:27;;;;;;;9.40;7.95;;;16.80;99.90;;;;;;5030877;28;25123;-73
2021/10/20 09:53:53;;;;;;;10.98;8.43;;;16.80;99.90;;;;;;5033257;28;25097;-70
2021/10/20 09:56:20;;;;;;;11.80;8.23;;;16.90;99.90;;;;;;5052143;28;25081;-69
2021/10/20 09:58:49;;;;;;;11.48;8.73;;;16.90;99.90;;;;;;5049527;28;25160;-73
2021/10/20 10:01:17;;;;;;;9.57;8.60;;;16.90;99.90;;;;;;5052299;28;25094;-68
2021/10/20 10:03:43;;;;;;;13.45;8.65;;;17.00;99.90;;;;;;5053446;28;25051;-69
2021/10/20 10:06:09;;;;;;;8.60;7.53;;;17.10;99.90;;;;;;5051834;28;25068;-71
2021/10/20 10:08:35;;;;;;;12.52;8.30;;;17.10;99.90;;;;;;5063528;28;25083;-68
2021/10/20 10:11:01;;;;;;;12.35;8.55;;;17.10;99.90;;;;;;5058458;28;25139;-71
2021/10/20 10:13:30;;;;;;;9.70;8.07;;;17.20;99.90;;;;;;5023326;28;25129;-71
2021/10/20 10:15:59;;;;;;;10.65;8.05;;;17.30;99.90;;;;;;5048727;28;25058;-69
2021/10/20 10:18:25;;;;;;;12.18;8.25;;;17.30;99.90;;;;;;5029953;28;25091;-71
2021/10/20 10:20:51;;;;;;;9.15;7.88;;;17.20;99.90;;;;;;5028488;28;25055;-72
2021/10/20 10:23:22;;;;;;;12.55;6.85;;;17.20;99.90;;;;;;5047948;28;25054;-70
2021/10/20 10:26:08;;;;;;;9.15;7.60;;;17.20;99.90;;;;;;5048295;28;25087;-70
2021/10/20 10:28:36;;;;;;;12.90;7.78;;;17.30;99.90;;;;;;5050559;28;25084;-69
2021/10/20 10:31:10;;;;;;;8.45;7.45;;;17.40;99.90;;;;;;5031952;28;25068;-70
2021/10/20 10:33:50;;;;;;;9.77;7.32;;;17.30;99.90;;;;;;5050401;28;25078;-69
2021/10/20 10:36:21;;;;;;;9.35;6.78;;;17.30;99.90;;;;;;5050464;28;24931;-71
2021/10/20 10:38:48;;;;;;;18.50;7.75;;;17.30;99.90;;;;;;5053236;28;25049;-70
2021/10/20 10:41:29;;;;;;;8.77;6.93;;;17.30;99.90;;;;;;5028919;28;25086;-71
2021/10/20 10:44:05;;;;;;;9.98;7.47;;;17.30;99.90;;;;;;5024427;28;25083;-71
2021/10/20 10:46:33;;;;;;;8.93;6.70;;;17.30;99.90;;;;;;5051517;28;25099;-70
2021/10/20 10:49:01;;;;;;;8.95;6.40;;;17.30;99.90;;;;;;5030412;28;25072;-67
2021/10/20 10:51:26;;;;;;;11.25;7.72;;;17.30;99.90;;;;;;5049730;28;25064;-72
2021/10/20 10:53:59;;;;;;;12.23;8.05;;;17.40;99.90;;;;;;5029341;28;25052;-69
2021/10/20 10:56:26;;;;;;;11.52;7.00;;;17.30;99.90;;;;;;5022384;28;25095;-70
2021/10/20 10:59:00;;;;;;;10.85;7.20;;;17.30;99.90;;;;;;5046683;28;25084;-69
2021/10/20 11:01:46;;;;;;;7.70;6.93;;;17.30;99.90;;;;;;5046574;28;25133;-71
2021/10/20 11:04:26;;;;;;;9.70;7.60;;;17.30;99.90;;;;;;5026029;28;25077;-76
2021/10/20 11:06:54;;;;;;;11.02;6.82;;;17.30;99.90;;;;;;5045052;28;25107;-70
2021/10/20 11:09:31;;;;;;;7.75;6.07;;;17.30;99.90;;;;;;5045404;28;25067;-73
2021/10/20 11:11:58;;;;;;;7.82;6.88;;;17.20;99.90;;;;;;5045395;28;25065;-69
2021/10/20 11:14:28;;;;;;;9.05;6.75;;;17.30;99.90;;;;;;5051092;28;25094;-66
2021/10/20 11:17:10;;;;;;;10.45;7.25;;;17.30;99.90;;;;;;5025830;28;25064;-71
2021/10/20 11:19:37;;;;;;;13.98;6.60;;;17.20;99.90;;;;;;5045626;28;25090;-70
2021/10/20 11:22:04;;;;;;;12.90;6.93;;;17.30;99.90;;;;;;5028239;28;25143;-71
2021/10/20 11:24:32;;;;;;;9.10;7.35;;;17.30;99.90;;;;;;5047588;28;25078;-71
2021/10/20 11:27:02;;;;;;;9.73;7.40;;;17.30;99.90;;;;;;5041319;28;25128;-69
2021/10/20 11:29:28;;;;;;;9.43;6.75;;;17.30;99.90;;;;;;5020220;28;25055;-71
2021/10/20 11:31:58;;;;;;;13.90;6.80;;;17.20;99.90;;;;;;5029150;28;25057;-67
2021/10/20 11:34:28;;;;;;;9.32;6.47;;;17.30;99.90;;;;;;5046152;28;25082;-72
2021/10/20 11:37:01;;;;;;;8.70;7.03;;;17.30;99.90;;;;;;5046362;28;25050;-69
2021/10/20 11:39:29;;;;;;;10.30;6.43;;;17.20;99.90;;;;;;5049592;28;25061;-71
2021/10/20 11:41:57;;;;;;;10.25;6.95;;;17.20;99.90;;;;;;5051585;28;25106;-69
2021/10/20 11:44:31;;;;;;;12.23;7.15;;;17.20;99.90;;;;;;5046273;28;25072;-70
2021/10/20 11:46:58;;;;;;;9.88;6.53;;;17.20;99.90;;;;;;5042305;28;25083;-69
2021/10/20 11:49:24;;;;;;;8.38;6.28;;;17.20;99.90;;;;;;5035325;28;24981;-70
2021/10/20 11:51:51;;;;;;;10.20;6.38;;;17.20;99.90;;;;;;5048042;28;25056;-69
2021/10/20 11:54:18;;;;;;;11.45;6.70;;;17.20;99.90;;;;;;5044506;28;25066;-71
2021/10/20 11:56:51;;;;;;;6.70;5.95;;;17.20;99.90;;;;;;5039624;28;25048;-71
2021/10/20 11:59:18;;;;;;;9.88;6.38;;;17.20;99.90;;;;;;5045769;28;25171;-69
2021/10/20 12:01:44;;;;;;;10.30;6.53;;;17.30;99.90;;;;;;5045029;28;25109;-72
2021/10/20 12:04:10;;;;;;;12.82;6.45;;;17.30;99.90;;;;;;5046265;28;25124;-68
2021/10/20 12:06:35;;;;;;;7.25;6.32;;;17.30;99.90;;;;;;5025115;28;25104;-70
2021/10/20 12:09:02;;;;;;;9.95;6.40;;;17.30;99.90;;;;;;5044336;28;25137;-71
2021/10/20 12:11:28;;;;;;;10.02;6.05;;;17.30;99.90;;;;;;5044603;28;25097;-71
2021/10/20 12:14:04;;;;;;;8.15;6.18;;;17.30;99.90;;;;;;5044480;28;25061;-68
2021/10/20 12:16:31;;;;;;;8.80;5.53;;;17.30;99.90;;;;;;5047853;28;25093;-71
2021/10/20 12:18:58;;;;;;;8.93;5.32;;;17.30;99.90;;;;;;5038081;28;25160;-68
2021/10/20 12:21:28;;;;;;;5.75;4.97;;;17.40;99.90;;;;;;5008498;28;25081;-70
2021/10/20 12:23:59;;;;;;;7.90;5.40;;;17.50;99.90;;;;;;5043675;28;25082;-69
2021/10/20 12:26:29;;;;;;;12.93;4.90;;;17.50;99.90;;;;;;5040945;28;25138;-70
2021/10/20 12:28:55;;;;;;;9.18;4.68;;;17.40;99.90;;;;;;5045850;28;25070;-69
2021/10/20 12:31:24;;;;;;;9.35;4.82;;;17.50;99.90;;;;;;5047505;28;25091;-71
2021/10/20 12:33:51;;;;;;;10.60;4.47;;;17.50;99.90;;;;;;5043633;28;25136;-70
2021/10/20 12:36:21;;;;;;;16.15;5.22;;;17.60;99.90;;;;;;5043828;28;25053;-69